sensor_id;sensor_type;location;lat;lon;timestamp;temperature;humidity
43049;DHT22;28673;44.412;11.918;2023-08-08T00:01:32;18.30;81.90
43049;DHT22;28673;44.412;11.918;2023-08-08T00:03:58;18.30;82.10
43049;DHT22;28673;44.412;11.918;2023-08-08T00:06:23;18.30;82.10
43049;DHT22;28673;44.412;11.918;2023-08-08T00:08:49;18.30;82.10
43049;DHT22;28673;44.412;11.918;2023-08-08T00:11:15;18.30;82.20
43049;DHT22;28673;44.412;11.918;2023-08-08T00:13:41;18.30;82.30
43049;DHT22;28673;44.412;11.918;2023-08-08T00:16:07;18.20;82.40
43049;DHT22;28673;44.412;11.918;2023-08-08T00:18:32;18.20;82.50
43049;DHT22;28673;44.412;11.918;2023-08-08T00:20:58;18.10;82.60
43049;DHT22;28673;44.412;11.918;2023-08-08T00:23:24;18.10;82.70
43049;DHT22;28673;44.412;11.918;2023-08-08T00:25:50;18.00;83.00
43049;DHT22;28673;44.412;11.918;2023-08-08T00:28:17;18.00;83.10
43049;DHT22;28673;44.412;11.918;2023-08-08T00:30:43;17.90;83.40
43049;DHT22;28673;44.412;11.918;2023-08-08T00:33:09;17.90;83.50
43049;DHT22;28673;44.412;11.918;2023-08-08T00:35:35;18.00;83.70
43049;DHT22;28673;44.412;11.918;2023-08-08T00:38:01;18.00;83.80
43049;DHT22;28673;44.412;11.918;2023-08-08T00:40:27;17.90;83.80
43049;DHT22;28673;44.412;11.918;2023-08-08T00:42:53;17.90;83.80
43049;DHT22;28673;44.412;11.918;2023-08-08T00:45:18;17.90;83.80
43049;DHT22;28673;44.412;11.918;2023-08-08T00:47:44;17.90;83.90
43049;DHT22;28673;44.412;11.918;2023-08-08T00:50:11;17.80;83.90
43049;DHT22;28673;44.412;11.918;2023-08-08T00:52:38;17.70;84.00
43049;DHT22;28673;44.412;11.918;2023-08-08T00:55:06;17.70;84.20
43049;DHT22;28673;44.412;11.918;2023-08-08T00:57:32;17.70;84.30
43049;DHT22;28673;44.412;11.918;2023-08-08T00:59:58;17.70;84.40
43049;DHT22;28673;44.412;11.918;2023-08-08T01:02:23;17.60;84.60
43049;DHT22;28673;44.412;11.918;2023-08-08T01:04:49;17.60;84.80
43049;DHT22;28673;44.412;11.918;2023-08-08T01:10:15;17.60;85.70
43049;DHT22;28673;44.412;11.918;2023-08-08T01:12:48;17.60;84.90
43049;DHT22;28673;44.412;11.918;2023-08-08T01:15:17;17.60;85.00
43049;DHT22;28673;44.412;11.918;2023-08-08T01:17:44;17.60;84.90
43049;DHT22;28673;44.412;11.918;2023-08-08T01:20:12;17.60;85.00
43049;DHT22;28673;44.412;11.918;2023-08-08T01:23:24;17.50;85.00
43049;DHT22;28673;44.412;11.918;2023-08-08T01:25:55;17.50;85.60
43049;DHT22;28673;44.412;11.918;2023-08-08T01:28:22;17.50;85.00
43049;DHT22;28673;44.412;11.918;2023-08-08T01:30:49;17.40;85.10
43049;DHT22;28673;44.412;11.918;2023-08-08T01:33:14;17.40;85.30
43049;DHT22;28673;44.412;11.918;2023-08-08T01:35:44;17.40;85.40
43049;DHT22;28673;44.412;11.918;2023-08-08T01:38:17;17.40;85.60
43049;DHT22;28673;44.412;11.918;2023-08-08T01:40:45;17.40;85.60
43049;DHT22;28673;44.412;11.918;2023-08-08T01:43:12;17.40;85.50
43049;DHT22;28673;44.412;11.918;2023-08-08T01:45:39;17.40;85.70
43049;DHT22;28673;44.412;11.918;2023-08-08T01:48:09;17.30;86.00
43049;DHT22;28673;44.412;11.918;2023-08-08T01:50:36;17.30;85.80
43049;DHT22;28673;44.412;11.918;2023-08-08T01:53:02;17.30;86.00
43049;DHT22;28673;44.412;11.918;2023-08-08T01:55:28;17.20;85.90
43049;DHT22;28673;44.412;11.918;2023-08-08T01:57:54;17.20;86.00
43049;DHT22;28673;44.412;11.918;2023-08-08T02:00:20;17.20;86.00
43049;DHT22;28673;44.412;11.918;2023-08-08T02:02:46;17.10;86.00
43049;DHT22;28673;44.412;11.918;2023-08-08T02:05:11;17.10;86.20
43049;DHT22;28673;44.412;11.918;2023-08-08T02:07:37;17.10;86.30
43049;DHT22;28673;44.412;11.918;2023-08-08T02:10:03;17.10;86.30
43049;DHT22;28673;44.412;11.918;2023-08-08T02:12:30;17.10;86.20
43049;DHT22;28673;44.412;11.918;2023-08-08T02:14:57;17.10;86.20
43049;DHT22;28673;44.412;11.918;2023-08-08T02:17:25;17.10;86.30
43049;DHT22;28673;44.412;11.918;2023-08-08T02:19:52;17.10;86.50
43049;DHT22;28673;44.412;11.918;2023-08-08T02:22:19;17.00;86.60
43049;DHT22;28673;44.412;11.918;2023-08-08T02:24:44;17.00;86.80
43049;DHT22;28673;44.412;11.918;2023-08-08T02:27:11;17.00;86.90
43049;DHT22;28673;44.412;11.918;2023-08-08T02:29:37;16.90;87.00
43049;DHT22;28673;44.412;11.918;2023-08-08T02:32:03;16.90;87.20
43049;DHT22;28673;44.412;11.918;2023-08-08T02:34:29;16.90;87.30
43049;DHT22;28673;44.412;11.918;2023-08-08T02:36:55;16.80;87.40
43049;DHT22;28673;44.412;11.918;2023-08-08T02:39:21;16.80;87.60
43049;DHT22;28673;44.412;11.918;2023-08-08T02:41:47;16.80;87.60
43049;DHT22;28673;44.412;11.918;2023-08-08T02:44:13;16.90;87.70
43049;DHT22;28673;44.412;11.918;2023-08-08T02:46:39;16.80;87.70
43049;DHT22;28673;44.412;11.918;2023-08-08T02:49:06;16.80;87.90
43049;DHT22;28673;44.412;11.918;2023-08-08T02:51:32;16.80;87.90
43049;DHT22;28673;44.412;11.918;2023-08-08T02:53:58;16.80;88.00
43049;DHT22;28673;44.412;11.918;2023-08-08T02:56:24;16.70;88.00
43049;DHT22;28673;44.412;11.918;2023-08-08T02:58:51;16.70;88.10
43049;DHT22;28673;44.412;11.918;2023-08-08T03:01:17;16.60;88.10
43049;DHT22;28673;44.412;11.918;2023-08-08T03:03:46;16.60;88.10
43049;DHT22;28673;44.412;11.918;2023-08-08T03:06:13;16.60;88.20
43049;DHT22;28673;44.412;11.918;2023-08-08T03:08:39;16.60;88.30
43049;DHT22;28673;44.412;11.918;2023-08-08T03:11:05;16.50;88.40
43049;DHT22;28673;44.412;11.918;2023-08-08T03:13:32;16.60;88.40
43049;DHT22;28673;44.412;11.918;2023-08-08T03:15:58;16.60;88.40
43049;DHT22;28673;44.412;11.918;2023-08-08T03:18:24;16.60;88.30
43049;DHT22;28673;44.412;11.918;2023-08-08T03:20:52;16.60;88.30
43049;DHT22;28673;44.412;11.918;2023-08-08T03:23:18;16.50;88.40
43049;DHT22;28673;44.412;11.918;2023-08-08T03:25:45;16.50;88.50
43049;DHT22;28673;44.412;11.918;2023-08-08T03:28:12;16.40;88.50
43049;DHT22;28673;44.412;11.918;2023-08-08T03:30:38;16.40;88.60
43049;DHT22;28673;44.412;11.918;2023-08-08T03:33:05;16.40;88.80
43049;DHT22;28673;44.412;11.918;2023-08-08T03:35:31;16.40;88.90
43049;DHT22;28673;44.412;11.918;2023-08-08T03:37:57;16.30;89.00
43049;DHT22;28673;44.412;11.918;2023-08-08T03:40:23;16.30;89.30
43049;DHT22;28673;44.412;11.918;2023-08-08T03:42:49;16.30;89.40
43049;DHT22;28673;44.412;11.918;2023-08-08T03:45:15;16.30;89.30
43049;DHT22;28673;44.412;11.918;2023-08-08T03:47:41;16.30;89.30
43049;DHT22;28673;44.412;11.918;2023-08-08T03:50:08;16.30;89.20
43049;DHT22;28673;44.412;11.918;2023-08-08T03:52:34;16.30;89.20
43049;DHT22;28673;44.412;11.918;2023-08-08T03:55:03;16.20;89.40
43049;DHT22;28673;44.412;11.918;2023-08-08T03:57:29;16.20;89.40
43049;DHT22;28673;44.412;11.918;2023-08-08T03:59:55;16.10;89.40
43049;DHT22;28673;44.412;11.918;2023-08-08T04:02:21;16.10;89.60
43049;DHT22;28673;44.412;11.918;2023-08-08T04:04:47;16.10;89.70
43049;DHT22;28673;44.412;11.918;2023-08-08T04:07:13;16.00;89.70
43049;DHT22;28673;44.412;11.918;2023-08-08T04:09:39;16.00;90.00
43049;DHT22;28673;44.412;11.918;2023-08-08T04:12:05;16.00;90.10
43049;DHT22;28673;44.412;11.918;2023-08-08T04:14:32;15.90;90.20
43049;DHT22;28673;44.412;11.918;2023-08-08T04:16:58;15.90;90.20
43049;DHT22;28673;44.412;11.918;2023-08-08T04:19:24;15.90;90.20
43049;DHT22;28673;44.412;11.918;2023-08-08T04:21:50;15.90;90.20
43049;DHT22;28673;44.412;11.918;2023-08-08T04:24:16;15.90;90.40
43049;DHT22;28673;44.412;11.918;2023-08-08T04:26:41;15.90;90.20
43049;DHT22;28673;44.412;11.918;2023-08-08T04:29:07;15.80;90.30
43049;DHT22;28673;44.412;11.918;2023-08-08T04:31:33;15.80;90.30
43049;DHT22;28673;44.412;11.918;2023-08-08T04:33:59;15.80;90.40
43049;DHT22;28673;44.412;11.918;2023-08-08T04:36:29;15.70;90.50
43049;DHT22;28673;44.412;11.918;2023-08-08T04:38:55;15.70;90.50
43049;DHT22;28673;44.412;11.918;2023-08-08T04:41:21;15.70;90.60
43049;DHT22;28673;44.412;11.918;2023-08-08T04:43:47;15.70;90.70
43049;DHT22;28673;44.412;11.918;2023-08-08T04:46:13;15.70;90.80
43049;DHT22;28673;44.412;11.918;2023-08-08T04:48:39;15.70;90.80
43049;DHT22;28673;44.412;11.918;2023-08-08T04:51:05;15.70;90.80
43049;DHT22;28673;44.412;11.918;2023-08-08T04:53:31;15.70;90.70
43049;DHT22;28673;44.412;11.918;2023-08-08T04:55:57;15.70;90.70
43049;DHT22;28673;44.412;11.918;2023-08-08T04:58:23;15.80;90.80
43049;DHT22;28673;44.412;11.918;2023-08-08T05:00:49;15.80;90.80
43049;DHT22;28673;44.412;11.918;2023-08-08T05:03:17;15.80;90.80
43049;DHT22;28673;44.412;11.918;2023-08-08T05:05:43;15.70;90.80
43049;DHT22;28673;44.412;11.918;2023-08-08T05:08:13;15.80;90.90
43049;DHT22;28673;44.412;11.918;2023-08-08T05:10:40;15.80;90.90
43049;DHT22;28673;44.412;11.918;2023-08-08T05:13:06;15.80;91.00
43049;DHT22;28673;44.412;11.918;2023-08-08T05:15:32;15.80;91.10
43049;DHT22;28673;44.412;11.918;2023-08-08T05:17:57;15.80;91.50
43049;DHT22;28673;44.412;11.918;2023-08-08T05:20:25;15.90;91.30
43049;DHT22;28673;44.412;11.918;2023-08-08T05:22:51;16.00;91.40
43049;DHT22;28673;44.412;11.918;2023-08-08T05:25:17;16.10;91.40
43049;DHT22;28673;44.412;11.918;2023-08-08T05:27:42;16.10;91.40
43049;DHT22;28673;44.412;11.918;2023-08-08T05:30:09;16.20;91.60
43049;DHT22;28673;44.412;11.918;2023-08-08T05:32:34;16.20;91.90
43049;DHT22;28673;44.412;11.918;2023-08-08T05:35:00;16.30;91.90
43049;DHT22;28673;44.412;11.918;2023-08-08T05:37:29;16.30;92.00
43049;DHT22;28673;44.412;11.918;2023-08-08T05:39:55;16.40;92.10
43049;DHT22;28673;44.412;11.918;2023-08-08T05:42:21;16.40;92.00
43049;DHT22;28673;44.412;11.918;2023-08-08T05:44:46;16.50;92.10
43049;DHT22;28673;44.412;11.918;2023-08-08T05:47:12;16.50;92.10
43049;DHT22;28673;44.412;11.918;2023-08-08T05:49:38;16.60;92.10
43049;DHT22;28673;44.412;11.918;2023-08-08T05:52:05;16.80;92.10
43049;DHT22;28673;44.412;11.918;2023-08-08T05:54:30;16.90;92.10
43049;DHT22;28673;44.412;11.918;2023-08-08T05:56:56;17.00;91.90
43049;DHT22;28673;44.412;11.918;2023-08-08T05:59:22;17.10;91.60
43049;DHT22;28673;44.412;11.918;2023-08-08T06:01:48;17.30;91.50
43049;DHT22;28673;44.412;11.918;2023-08-08T06:04:14;17.40;91.40
43049;DHT22;28673;44.412;11.918;2023-08-08T06:06:40;17.50;91.40
43049;DHT22;28673;44.412;11.918;2023-08-08T06:09:06;17.60;91.20
43049;DHT22;28673;44.412;11.918;2023-08-08T06:11:34;17.70;91.10
43049;DHT22;28673;44.412;11.918;2023-08-08T06:14:00;17.90;91.10
43049;DHT22;28673;44.412;11.918;2023-08-08T06:16:26;18.00;91.00
43049;DHT22;28673;44.412;11.918;2023-08-08T06:18:52;18.20;90.90
43049;DHT22;28673;44.412;11.918;2023-08-08T06:21:18;18.30;90.90
43049;DHT22;28673;44.412;11.918;2023-08-08T06:23:44;18.50;90.70
43049;DHT22;28673;44.412;11.918;2023-08-08T06:26:10;18.60;90.70
43049;DHT22;28673;44.412;11.918;2023-08-08T06:28:36;18.70;90.60
43049;DHT22;28673;44.412;11.918;2023-08-08T06:31:02;18.80;90.50
43049;DHT22;28673;44.412;11.918;2023-08-08T06:33:28;18.90;90.40
43049;DHT22;28673;44.412;11.918;2023-08-08T06:35:56;19.00;90.20
43049;DHT22;28673;44.412;11.918;2023-08-08T06:38:21;19.10;90.10
43049;DHT22;28673;44.412;11.918;2023-08-08T06:40:48;19.20;90.00
43049;DHT22;28673;44.412;11.918;2023-08-08T06:43:14;19.30;89.40
43049;DHT22;28673;44.412;11.918;2023-08-08T06:45:39;19.30;89.00
43049;DHT22;28673;44.412;11.918;2023-08-08T06:48:06;19.40;88.90
43049;DHT22;28673;44.412;11.918;2023-08-08T06:50:32;19.40;88.70
43049;DHT22;28673;44.412;11.918;2023-08-08T06:52:57;19.50;87.90
43049;DHT22;28673;44.412;11.918;2023-08-08T06:55:23;19.70;87.50
43049;DHT22;28673;44.412;11.918;2023-08-08T06:57:52;19.80;86.70
43049;DHT22;28673;44.412;11.918;2023-08-08T07:00:18;20.00;85.80
43049;DHT22;28673;44.412;11.918;2023-08-08T07:02:44;20.20;84.80
43049;DHT22;28673;44.412;11.918;2023-08-08T07:05:10;20.50;84.00
43049;DHT22;28673;44.412;11.918;2023-08-08T07:07:36;20.70;82.80
43049;DHT22;28673;44.412;11.918;2023-08-08T07:10:04;21.00;81.90
43049;DHT22;28673;44.412;11.918;2023-08-08T07:12:32;21.30;81.20
43049;DHT22;28673;44.412;11.918;2023-08-08T07:14:57;21.50;80.70
43049;DHT22;28673;44.412;11.918;2023-08-08T07:17:23;21.80;79.90
43049;DHT22;28673;44.412;11.918;2023-08-08T07:19:51;22.10;78.90
43049;DHT22;28673;44.412;11.918;2023-08-08T07:22:17;22.40;77.10
43049;DHT22;28673;44.412;11.918;2023-08-08T07:24:43;22.70;75.40
43049;DHT22;28673;44.412;11.918;2023-08-08T07:27:09;22.90;74.90
43049;DHT22;28673;44.412;11.918;2023-08-08T07:29:35;23.20;74.60
43049;DHT22;28673;44.412;11.918;2023-08-08T07:32:03;23.40;74.20
43049;DHT22;28673;44.412;11.918;2023-08-08T07:34:29;23.80;74.00
43049;DHT22;28673;44.412;11.918;2023-08-08T07:36:55;24.00;73.40
43049;DHT22;28673;44.412;11.918;2023-08-08T07:39:21;24.40;72.70
43049;DHT22;28673;44.412;11.918;2023-08-08T07:41:48;24.60;72.30
43049;DHT22;28673;44.412;11.918;2023-08-08T07:44:14;25.00;71.40
43049;DHT22;28673;44.412;11.918;2023-08-08T07:46:39;25.20;70.10
43049;DHT22;28673;44.412;11.918;2023-08-08T07:49:05;25.30;69.00
43049;DHT22;28673;44.412;11.918;2023-08-08T07:51:32;25.50;69.70
43049;DHT22;28673;44.412;11.918;2023-08-08T07:53:58;25.80;69.30
43049;DHT22;28673;44.412;11.918;2023-08-08T07:56:24;25.90;67.30
43049;DHT22;28673;44.412;11.918;2023-08-08T07:58:50;26.20;67.80
43049;DHT22;28673;44.412;11.918;2023-08-08T08:01:16;26.40;67.20
43049;DHT22;28673;44.412;11.918;2023-08-08T08:03:42;26.60;66.90
43049;DHT22;28673;44.412;11.918;2023-08-08T08:06:08;26.80;66.10
43049;DHT22;28673;44.412;11.918;2023-08-08T08:08:34;26.90;66.00
43049;DHT22;28673;44.412;11.918;2023-08-08T08:11:01;27.10;65.90
43049;DHT22;28673;44.412;11.918;2023-08-08T08:13:27;27.30;65.10
43049;DHT22;28673;44.412;11.918;2023-08-08T08:15:53;27.40;64.60
43049;DHT22;28673;44.412;11.918;2023-08-08T08:18:19;27.70;64.40
43049;DHT22;28673;44.412;11.918;2023-08-08T08:20:48;27.90;63.70
43049;DHT22;28673;44.412;11.918;2023-08-08T08:23:14;28.10;63.60
43049;DHT22;28673;44.412;11.918;2023-08-08T08:25:40;28.30;63.40
43049;DHT22;28673;44.412;11.918;2023-08-08T08:28:06;28.50;63.00
43049;DHT22;28673;44.412;11.918;2023-08-08T08:30:32;28.70;62.50
43049;DHT22;28673;44.412;11.918;2023-08-08T08:32:58;28.90;62.50
43049;DHT22;28673;44.412;11.918;2023-08-08T08:35:25;29.20;61.90
43049;DHT22;28673;44.412;11.918;2023-08-08T08:37:56;29.30;61.00
43049;DHT22;28673;44.412;11.918;2023-08-08T08:40:23;29.40;59.20
43049;DHT22;28673;44.412;11.918;2023-08-08T08:42:50;29.30;60.30
43049;DHT22;28673;44.412;11.918;2023-08-08T08:45:19;29.60;60.10
43049;DHT22;28673;44.412;11.918;2023-08-08T08:47:47;29.80;59.60
43049;DHT22;28673;44.412;11.918;2023-08-08T08:50:16;30.10;60.20
43049;DHT22;28673;44.412;11.918;2023-08-08T08:52:43;30.40;60.10
43049;DHT22;28673;44.412;11.918;2023-08-08T08:55:13;30.70;59.70
43049;DHT22;28673;44.412;11.918;2023-08-08T08:57:39;31.00;60.00
43049;DHT22;28673;44.412;11.918;2023-08-08T09:00:06;31.10;59.30
43049;DHT22;28673;44.412;11.918;2023-08-08T09:02:32;31.30;59.10
43049;DHT22;28673;44.412;11.918;2023-08-08T09:05:00;31.30;58.50
43049;DHT22;28673;44.412;11.918;2023-08-08T09:07:30;31.30;58.40
43049;DHT22;28673;44.412;11.918;2023-08-08T09:10:00;31.30;58.40
43049;DHT22;28673;44.412;11.918;2023-08-08T09:12:36;31.40;59.00
43049;DHT22;28673;44.412;11.918;2023-08-08T09:15:06;31.70;58.90
43049;DHT22;28673;44.412;11.918;2023-08-08T09:17:33;31.90;59.40
43049;DHT22;28673;44.412;11.918;2023-08-08T09:20:02;32.10;59.10
43049;DHT22;28673;44.412;11.918;2023-08-08T09:22:34;32.20;58.60
43049;DHT22;28673;44.412;11.918;2023-08-08T09:25:01;32.40;58.80
43049;DHT22;28673;44.412;11.918;2023-08-08T09:27:28;32.70;58.40
43049;DHT22;28673;44.412;11.918;2023-08-08T09:29:58;33.00;57.90
43049;DHT22;28673;44.412;11.918;2023-08-08T09:32:38;33.10;57.20
43049;DHT22;28673;44.412;11.918;2023-08-08T09:35:10;33.20;56.10
43049;DHT22;28673;44.412;11.918;2023-08-08T09:37:41;33.30;56.30
43049;DHT22;28673;44.412;11.918;2023-08-08T09:40:23;33.60;56.40
43049;DHT22;28673;44.412;11.918;2023-08-08T09:46:21;33.80;56.30
43049;DHT22;28673;44.412;11.918;2023-08-08T09:48:57;33.80;56.80
43049;DHT22;28673;44.412;11.918;2023-08-08T09:51:24;33.90;57.00
43049;DHT22;28673;44.412;11.918;2023-08-08T09:53:54;34.00;56.50
43049;DHT22;28673;44.412;11.918;2023-08-08T09:56:31;34.20;56.10
43049;DHT22;28673;44.412;11.918;2023-08-08T09:58:58;34.20;55.60
43049;DHT22;28673;44.412;11.918;2023-08-08T10:01:25;34.20;55.60
43049;DHT22;28673;44.412;11.918;2023-08-08T10:04:00;34.10;55.20
43049;DHT22;28673;44.412;11.918;2023-08-08T10:06:29;34.30;54.90
43049;DHT22;28673;44.412;11.918;2023-08-08T10:08:59;34.40;54.90
43049;DHT22;28673;44.412;11.918;2023-08-08T10:11:26;34.40;55.00
43049;DHT22;28673;44.412;11.918;2023-08-08T10:13:53;34.60;55.50
43049;DHT22;28673;44.412;11.918;2023-08-08T10:16:24;34.40;54.50
43049;DHT22;28673;44.412;11.918;2023-08-08T10:18:59;34.40;54.40
43049;DHT22;28673;44.412;11.918;2023-08-08T10:21:26;34.50;54.60
43049;DHT22;28673;44.412;11.918;2023-08-08T10:24:05;34.60;54.80
43049;DHT22;28673;44.412;11.918;2023-08-08T10:26:32;34.50;53.20
43049;DHT22;28673;44.412;11.918;2023-08-08T10:29:00;34.60;55.00
43049;DHT22;28673;44.412;11.918;2023-08-08T10:31:33;34.70;55.10
43049;DHT22;28673;44.412;11.918;2023-08-08T10:34:05;34.90;55.10
43049;DHT22;28673;44.412;11.918;2023-08-08T10:36:51;34.90;54.40
43049;DHT22;28673;44.412;11.918;2023-08-08T10:39:20;34.90;53.80
43049;DHT22;28673;44.412;11.918;2023-08-08T10:41:49;35.00;54.00
43049;DHT22;28673;44.412;11.918;2023-08-08T10:44:27;35.20;54.50
43049;DHT22;28673;44.412;11.918;2023-08-08T10:46:53;35.30;54.10
43049;DHT22;28673;44.412;11.918;2023-08-08T10:49:20;35.40;54.50
43049;DHT22;28673;44.412;11.918;2023-08-08T10:51:48;35.60;54.40
43049;DHT22;28673;44.412;11.918;2023-08-08T10:54:25;35.60;53.80
43049;DHT22;28673;44.412;11.918;2023-08-08T10:56:57;35.70;52.90
43049;DHT22;28673;44.412;11.918;2023-08-08T10:59:36;35.90;52.70
43049;DHT22;28673;44.412;11.918;2023-08-08T11:02:03;36.20;52.80
43049;DHT22;28673;44.412;11.918;2023-08-08T11:04:29;36.50;52.20
43049;DHT22;28673;44.412;11.918;2023-08-08T11:06:58;36.90;52.10
43049;DHT22;28673;44.412;11.918;2023-08-08T11:09:25;37.00;52.10
43049;DHT22;28673;44.412;11.918;2023-08-08T11:11:52;37.10;52.20
43049;DHT22;28673;44.412;11.918;2023-08-08T11:14:22;37.10;52.00
43049;DHT22;28673;44.412;11.918;2023-08-08T11:16:50;37.10;51.60
43049;DHT22;28673;44.412;11.918;2023-08-08T11:19:17;37.00;50.90
43049;DHT22;28673;44.412;11.918;2023-08-08T11:21:46;37.00;50.80
43049;DHT22;28673;44.412;11.918;2023-08-08T11:24:16;37.20;50.10
43049;DHT22;28673;44.412;11.918;2023-08-08T11:26:58;37.50;50.30
43049;DHT22;28673;44.412;11.918;2023-08-08T11:29:26;37.30;48.90
43049;DHT22;28673;44.412;11.918;2023-08-08T11:31:59;37.30;49.30
43049;DHT22;28673;44.412;11.918;2023-08-08T11:34:25;37.40;49.30
43049;DHT22;28673;44.412;11.918;2023-08-08T11:36:51;37.40;49.10
43049;DHT22;28673;44.412;11.918;2023-08-08T11:39:17;37.40;49.10
43049;DHT22;28673;44.412;11.918;2023-08-08T11:41:45;37.70;49.30
43049;DHT22;28673;44.412;11.918;2023-08-08T11:44:13;37.70;49.30
43049;DHT22;28673;44.412;11.918;2023-08-08T11:46:47;37.70;48.70
43049;DHT22;28673;44.412;11.918;2023-08-08T11:49:16;37.80;49.30
43049;DHT22;28673;44.412;11.918;2023-08-08T11:51:46;37.80;49.20
43049;DHT22;28673;44.412;11.918;2023-08-08T11:54:16;37.90;49.40
43049;DHT22;28673;44.412;11.918;2023-08-08T11:56:42;38.00;47.90
43049;DHT22;28673;44.412;11.918;2023-08-08T11:59:08;37.70;48.20
43049;DHT22;28673;44.412;11.918;2023-08-08T12:01:35;37.70;48.40
43049;DHT22;28673;44.412;11.918;2023-08-08T12:04:05;37.50;50.30
43049;DHT22;28673;44.412;11.918;2023-08-08T12:06:32;37.40;50.60
43049;DHT22;28673;44.412;11.918;2023-08-08T12:09:02;37.30;50.40
43049;DHT22;28673;44.412;11.918;2023-08-08T12:11:28;37.50;51.00
43049;DHT22;28673;44.412;11.918;2023-08-08T12:13:59;37.60;50.90
43049;DHT22;28673;44.412;11.918;2023-08-08T12:16:28;37.70;51.40
43049;DHT22;28673;44.412;11.918;2023-08-08T12:18:56;37.40;51.10
43049;DHT22;28673;44.412;11.918;2023-08-08T12:21:22;37.20;51.00
43049;DHT22;28673;44.412;11.918;2023-08-08T12:23:48;36.80;49.10
43049;DHT22;28673;44.412;11.918;2023-08-08T12:26:13;36.40;49.20
43049;DHT22;28673;44.412;11.918;2023-08-08T12:28:39;36.80;49.20
43049;DHT22;28673;44.412;11.918;2023-08-08T12:31:05;37.20;48.90
43049;DHT22;28673;44.412;11.918;2023-08-08T12:33:31;37.50;47.90
43049;DHT22;28673;44.412;11.918;2023-08-08T12:35:57;37.80;48.50
43049;DHT22;28673;44.412;11.918;2023-08-08T12:38:23;38.00;48.00
43049;DHT22;28673;44.412;11.918;2023-08-08T12:40:49;38.20;47.80
43049;DHT22;28673;44.412;11.918;2023-08-08T12:43:16;38.40;47.50
43049;DHT22;28673;44.412;11.918;2023-08-08T12:45:46;38.60;47.00
43049;DHT22;28673;44.412;11.918;2023-08-08T12:48:12;38.80;46.80
43049;DHT22;28673;44.412;11.918;2023-08-08T12:50:38;39.00;46.60
43049;DHT22;28673;44.412;11.918;2023-08-08T12:53:05;39.20;46.40
43049;DHT22;28673;44.412;11.918;2023-08-08T12:55:31;39.40;45.90
43049;DHT22;28673;44.412;11.918;2023-08-08T12:57:57;39.70;45.90
43049;DHT22;28673;44.412;11.918;2023-08-08T13:00:22;39.80;45.20
43049;DHT22;28673;44.412;11.918;2023-08-08T13:02:49;39.80;45.00
43049;DHT22;28673;44.412;11.918;2023-08-08T13:05:15;39.80;44.80
43049;DHT22;28673;44.412;11.918;2023-08-08T13:07:41;40.00;44.70
43049;DHT22;28673;44.412;11.918;2023-08-08T13:10:07;40.00;44.80
43049;DHT22;28673;44.412;11.918;2023-08-08T13:12:33;40.10;44.70
43049;DHT22;28673;44.412;11.918;2023-08-08T13:14:59;40.20;44.40
43049;DHT22;28673;44.412;11.918;2023-08-08T13:17:25;40.10;43.90
43049;DHT22;28673;44.412;11.918;2023-08-08T13:19:51;40.00;44.10
43049;DHT22;28673;44.412;11.918;2023-08-08T13:22:17;39.90;44.40
43049;DHT22;28673;44.412;11.918;2023-08-08T13:24:43;39.90;45.20
43049;DHT22;28673;44.412;11.918;2023-08-08T13:27:09;39.90;45.10
43049;DHT22;28673;44.412;11.918;2023-08-08T13:29:35;39.90;44.20
43049;DHT22;28673;44.412;11.918;2023-08-08T13:32:01;39.90;44.20
43049;DHT22;28673;44.412;11.918;2023-08-08T13:34:28;39.80;44.70
43049;DHT22;28673;44.412;11.918;2023-08-08T13:36:55;39.50;44.80
43049;DHT22;28673;44.412;11.918;2023-08-08T13:39:21;39.50;44.50
43049;DHT22;28673;44.412;11.918;2023-08-08T13:41:46;39.40;44.40
43049;DHT22;28673;44.412;11.918;2023-08-08T13:44:12;39.40;44.20
43049;DHT22;28673;44.412;11.918;2023-08-08T13:46:38;39.40;44.20
43049;DHT22;28673;44.412;11.918;2023-08-08T13:49:04;39.40;45.10
43049;DHT22;28673;44.412;11.918;2023-08-08T13:51:30;39.20;47.20
43049;DHT22;28673;44.412;11.918;2023-08-08T13:53:56;39.20;47.80
43049;DHT22;28673;44.412;11.918;2023-08-08T13:56:22;39.10;48.90
43049;DHT22;28673;44.412;11.918;2023-08-08T13:58:48;39.10;49.60
43049;DHT22;28673;44.412;11.918;2023-08-08T14:01:14;38.90;50.50
43049;DHT22;28673;44.412;11.918;2023-08-08T14:03:40;38.70;52.50
43049;DHT22;28673;44.412;11.918;2023-08-08T14:06:06;38.40;52.80
43049;DHT22;28673;44.412;11.918;2023-08-08T14:08:32;38.30;53.30
43049;DHT22;28673;44.412;11.918;2023-08-08T14:10:58;38.30;53.10
43049;DHT22;28673;44.412;11.918;2023-08-08T14:13:24;38.30;53.10
43049;DHT22;28673;44.412;11.918;2023-08-08T14:15:50;38.20;53.30
43049;DHT22;28673;44.412;11.918;2023-08-08T14:18:17;38.00;53.40
43049;DHT22;28673;44.412;11.918;2023-08-08T14:20:43;37.90;53.90
43049;DHT22;28673;44.412;11.918;2023-08-08T14:23:09;37.90;53.80
43049;DHT22;28673;44.412;11.918;2023-08-08T14:25:35;37.60;53.70
43049;DHT22;28673;44.412;11.918;2023-08-08T14:28:01;37.40;53.80
43049;DHT22;28673;44.412;11.918;2023-08-08T14:30:29;37.10;54.30
43049;DHT22;28673;44.412;11.918;2023-08-08T14:32:56;36.90;54.70
43049;DHT22;28673;44.412;11.918;2023-08-08T14:35:22;36.40;55.20
43049;DHT22;28673;44.412;11.918;2023-08-08T14:37:48;36.10;55.80
43049;DHT22;28673;44.412;11.918;2023-08-08T14:40:14;35.90;56.00
43049;DHT22;28673;44.412;11.918;2023-08-08T14:42:40;35.70;56.20
43049;DHT22;28673;44.412;11.918;2023-08-08T14:45:06;35.50;56.30
43049;DHT22;28673;44.412;11.918;2023-08-08T14:47:32;35.40;57.00
43049;DHT22;28673;44.412;11.918;2023-08-08T14:49:58;35.20;57.50
43049;DHT22;28673;44.412;11.918;2023-08-08T14:52:24;35.00;57.40
43049;DHT22;28673;44.412;11.918;2023-08-08T14:54:51;34.80;57.50
43049;DHT22;28673;44.412;11.918;2023-08-08T14:57:17;34.60;57.40
43049;DHT22;28673;44.412;11.918;2023-08-08T14:59:43;34.50;57.60
43049;DHT22;28673;44.412;11.918;2023-08-08T15:02:09;34.40;57.70
43049;DHT22;28673;44.412;11.918;2023-08-08T15:04:34;34.30;58.00
43049;DHT22;28673;44.412;11.918;2023-08-08T15:07:01;34.30;57.90
43049;DHT22;28673;44.412;11.918;2023-08-08T15:09:27;34.30;58.00
43049;DHT22;28673;44.412;11.918;2023-08-08T15:11:53;34.40;57.90
43049;DHT22;28673;44.412;11.918;2023-08-08T15:14:19;34.50;57.90
43049;DHT22;28673;44.412;11.918;2023-08-08T15:16:52;34.60;58.70
43049;DHT22;28673;44.412;11.918;2023-08-08T15:19:19;34.60;58.90
43049;DHT22;28673;44.412;11.918;2023-08-08T15:21:45;34.70;59.30